sensor_id;sensor_type;location;lat;lon;timestamp;pressure;altitude;pressure_sealevel;temperature;humidity
6343;BME280;3204;42.698;23.298;2023-06-14T00:01:23;94604.75;;;17.91;100.00
6343;BME280;3204;42.698;23.298;2023-06-14T00:03:49;94607.06;;;17.89;100.00
6343;BME280;3204;42.698;23.298;2023-06-14T00:06:14;94605.09;;;17.89;100.00
6343;BME280;3204;42.698;23.298;2023-06-14T00:08:40;94602.72;;;17.88;100.00
6343;BME280;3204;42.698;23.298;2023-06-14T00:11:06;94597.63;;;17.86;100.00
6343;BME280;3204;42.698;23.298;2023-06-14T00:13:31;94595.22;;;17.85;100.00
6343;BME280;3204;42.698;23.298;2023-06-14T00:15:57;94596.00;;;17.85;100.00
6343;BME280;3204;42.698;23.298;2023-06-14T00:18:23;94597.16;;;17.84;100.00
6343;BME280;3204;42.698;23.298;2023-06-14T00:20:54;94598.31;;;17.83;100.00
6343;BME280;3204;42.698;23.298;2023-06-14T00:23:20;94598.31;;;17.83;100.00
6343;BME280;3204;42.698;23.298;2023-06-14T00:25:46;94597.09;;;17.81;100.00
6343;BME280;3204;42.698;23.298;2023-06-14T00:28:11;94592.84;;;17.83;100.00
6343;BME280;3204;42.698;23.298;2023-06-14T00:30:37;94593.66;;;17.84;100.00
6343;BME280;3204;42.698;23.298;2023-06-14T00:33:03;94592.50;;;17.85;100.00
6343;BME280;3204;42.698;23.298;2023-06-14T00:35:28;94587.47;;;17.90;100.00
6343;BME280;3204;42.698;23.298;2023-06-14T00:37:54;94590.16;;;17.87;100.00
6343;BME280;3204;42.698;23.298;2023-06-14T00:40:20;94584.59;;;17.83;100.00
6343;BME280;3204;42.698;23.298;2023-06-14T00:42:47;94580.22;;;17.79;100.00
6343;BME280;3204;42.698;23.298;2023-06-14T00:45:12;94575.56;;;17.83;100.00
6343;BME280;3204;42.698;23.298;2023-06-14T00:47:38;94578.25;;;17.79;100.00
6343;BME280;3204;42.698;23.298;2023-06-14T00:50:07;94577.03;;;17.77;100.00
6343;BME280;3204;42.698;23.298;2023-06-14T00:52:33;94586.50;;;17.79;100.00
6343;BME280;3204;42.698;23.298;2023-06-14T00:55:00;94582.16;;;17.78;100.00
6343;BME280;3204;42.698;23.298;2023-06-14T00:57:26;94571.19;;;17.78;100.00
6343;BME280;3204;42.698;23.298;2023-06-14T00:59:52;94575.97;;;17.81;100.00
6343;BME280;3204;42.698;23.298;2023-06-14T01:02:17;94574.00;;;17.82;100.00
6343;BME280;3204;42.698;23.298;2023-06-14T01:04:46;94561.69;;;17.72;100.00
6343;BME280;3204;42.698;23.298;2023-06-14T01:15:12;94574.34;;;17.80;100.00
6343;BME280;3204;42.698;23.298;2023-06-14T01:17:39;94580.59;;;17.77;100.00
6343;BME280;3204;42.698;23.298;2023-06-14T01:20:10;94574.84;;;17.86;100.00
6343;BME280;3204;42.698;23.298;2023-06-14T01:22:48;94581.28;;;17.93;100.00
6343;BME280;3204;42.698;23.298;2023-06-14T01:25:14;94571.53;;;17.77;100.00
6343;BME280;3204;42.698;23.298;2023-06-14T01:27:41;94580.06;;;17.72;100.00
6343;BME280;3204;42.698;23.298;2023-06-14T01:30:08;94578.81;;;17.88;100.00
6343;BME280;3204;42.698;23.298;2023-06-14T01:32:35;94581.16;;;17.86;100.00
6343;BME280;3204;42.698;23.298;2023-06-14T01:35:01;94564.59;;;17.83;100.00
6343;BME280;3204;42.698;23.298;2023-06-14T01:37:27;94571.91;;;17.75;100.00
6343;BME280;3204;42.698;23.298;2023-06-14T01:39:53;94564.84;;;17.74;100.00
6343;BME280;3204;42.698;23.298;2023-06-14T01:42:20;94578.22;;;17.57;100.00
6343;BME280;3204;42.698;23.298;2023-06-14T01:44:46;94579.84;;;17.80;100.00
6343;BME280;3204;42.698;23.298;2023-06-14T01:47:14;94580.59;;;17.77;100.00
6343;BME280;3204;42.698;23.298;2023-06-14T01:49:39;94573.78;;;17.71;100.00
6343;BME280;3204;42.698;23.298;2023-06-14T01:52:05;94572.34;;;17.77;100.00
6343;BME280;3204;42.698;23.298;2023-06-14T01:54:31;94580.78;;;17.69;100.00
6343;BME280;3204;42.698;23.298;2023-06-14T01:56:57;94584.50;;;17.57;100.00
6343;BME280;3204;42.698;23.298;2023-06-14T01:59:22;94582.13;;;17.56;100.00
6343;BME280;3204;42.698;23.298;2023-06-14T02:01:48;94579.56;;;17.47;100.00
6343;BME280;3204;42.698;23.298;2023-06-14T02:04:13;94592.16;;;17.67;100.00
6343;BME280;3204;42.698;23.298;2023-06-14T02:06:38;94593.50;;;17.58;100.00
6343;BME280;3204;42.698;23.298;2023-06-14T02:09:04;94593.00;;;17.52;100.00
6343;BME280;3204;42.698;23.298;2023-06-14T02:11:29;94596.88;;;17.51;100.00
6343;BME280;3204;42.698;23.298;2023-06-14T02:13:56;94600.22;;;17.60;100.00
6343;BME280;3204;42.698;23.298;2023-06-14T02:16:22;94599.69;;;17.55;100.00
6343;BME280;3204;42.698;23.298;2023-06-14T02:18:48;94614.16;;;17.52;100.00
6343;BME280;3204;42.698;23.298;2023-06-14T02:21:13;94606.28;;;17.50;100.00
6343;BME280;3204;42.698;23.298;2023-06-14T02:23:39;94600.72;;;17.47;100.00
6343;BME280;3204;42.698;23.298;2023-06-14T02:26:05;94608.94;;;17.47;100.00
6343;BME280;3204;42.698;23.298;2023-06-14T02:28:30;94607.78;;;17.48;100.00
6343;BME280;3204;42.698;23.298;2023-06-14T02:30:56;94599.34;;;17.56;100.00
6343;BME280;3204;42.698;23.298;2023-06-14T02:33:21;94609.88;;;17.54;100.00
6343;BME280;3204;42.698;23.298;2023-06-14T02:35:47;94611.63;;;17.43;100.00
6343;BME280;3204;42.698;23.298;2023-06-14T02:38:12;94609.31;;;17.45;100.00
6343;BME280;3204;42.698;23.298;2023-06-14T02:40:38;94608.09;;;17.43;100.00
6343;BME280;3204;42.698;23.298;2023-06-14T02:43:03;94601.78;;;17.42;100.00
6343;BME280;3204;42.698;23.298;2023-06-14T02:45:29;94600.09;;;17.53;100.00
6343;BME280;3204;42.698;23.298;2023-06-14T02:47:54;94599.28;;;17.53;100.00
6343;BME280;3204;42.698;23.298;2023-06-14T02:50:20;94598.28;;;17.61;100.00
6343;BME280;3204;42.698;23.298;2023-06-14T02:52:47;94602.38;;;17.51;100.00
6343;BME280;3204;42.698;23.298;2023-06-14T02:55:12;94601.44;;;17.44;100.00
6343;BME280;3204;42.698;23.298;2023-06-14T02:57:38;94599.59;;;17.32;100.00
6343;BME280;3204;42.698;23.298;2023-06-14T03:00:04;94606.66;;;17.33;100.00
6343;BME280;3204;42.698;23.298;2023-06-14T03:02:29;94615.25;;;17.32;100.00
6343;BME280;3204;42.698;23.298;2023-06-14T03:04:55;94605.06;;;17.48;100.00
6343;BME280;3204;42.698;23.298;2023-06-14T03:07:21;94612.59;;;17.35;100.00
6343;BME280;3204;42.698;23.298;2023-06-14T03:09:48;94619.31;;;17.38;100.00
6343;BME280;3204;42.698;23.298;2023-06-14T03:12:14;94627.06;;;17.36;100.00
6343;BME280;3204;42.698;23.298;2023-06-14T03:14:40;94626.06;;;17.59;100.00
6343;BME280;3204;42.698;23.298;2023-06-14T03:17:07;94628.09;;;17.43;100.00
6343;BME280;3204;42.698;23.298;2023-06-14T03:19:33;94623.63;;;17.39;100.00
6343;BME280;3204;42.698;23.298;2023-06-14T03:21:58;94632.69;;;17.39;100.00
6343;BME280;3204;42.698;23.298;2023-06-14T03:24:25;94627.91;;;17.21;100.00
6343;BME280;3204;42.698;23.298;2023-06-14T03:26:53;94625.03;;;17.14;100.00
6343;BME280;3204;42.698;23.298;2023-06-14T03:29:18;94635.66;;;17.15;100.00
6343;BME280;3204;42.698;23.298;2023-06-14T03:32:01;94636.25;;;17.24;100.00
6343;BME280;3204;42.698;23.298;2023-06-14T03:34:27;94631.31;;;17.33;100.00
6343;BME280;3204;42.698;23.298;2023-06-14T03:36:52;94635.50;;;17.27;100.00
6343;BME280;3204;42.698;23.298;2023-06-14T03:39:18;94641.00;;;17.27;100.00
6343;BME280;3204;42.698;23.298;2023-06-14T03:41:44;94634.00;;;17.30;100.00
6343;BME280;3204;42.698;23.298;2023-06-14T03:44:09;94630.38;;;17.41;100.00
6343;BME280;3204;42.698;23.298;2023-06-14T03:46:35;94634.94;;;17.37;100.00
6343;BME280;3204;42.698;23.298;2023-06-14T03:49:00;94639.31;;;17.38;100.00
6343;BME280;3204;42.698;23.298;2023-06-14T03:51:28;94635.28;;;17.51;100.00
6343;BME280;3204;42.698;23.298;2023-06-14T03:53:53;94638.19;;;17.39;100.00
6343;BME280;3204;42.698;23.298;2023-06-14T03:56:20;94639.91;;;17.47;100.00
6343;BME280;3204;42.698;23.298;2023-06-14T03:58:45;94635.59;;;17.31;100.00
6343;BME280;3204;42.698;23.298;2023-06-14T04:01:10;94643.38;;;17.29;100.00
6343;BME280;3204;42.698;23.298;2023-06-14T04:03:37;94641.16;;;17.34;100.00
6343;BME280;3204;42.698;23.298;2023-06-14T04:06:04;94643.97;;;17.38;100.00
6343;BME280;3204;42.698;23.298;2023-06-14T04:08:29;94644.59;;;17.47;100.00
6343;BME280;3204;42.698;23.298;2023-06-14T04:10:55;94647.00;;;17.48;100.00
6343;BME280;3204;42.698;23.298;2023-06-14T04:13:20;94640.84;;;17.55;100.00
6343;BME280;3204;42.698;23.298;2023-06-14T04:15:46;94631.97;;;17.61;100.00
6343;BME280;3204;42.698;23.298;2023-06-14T04:18:12;94633.28;;;17.67;100.00
6343;BME280;3204;42.698;23.298;2023-06-14T04:20:38;94639.72;;;17.75;100.00
6343;BME280;3204;42.698;23.298;2023-06-14T04:23:17;94640.72;;;17.86;100.00
6343;BME280;3204;42.698;23.298;2023-06-14T04:25:47;94640.13;;;17.96;100.00
6343;BME280;3204;42.698;23.298;2023-06-14T04:28:15;94639.09;;;18.23;100.00
6343;BME280;3204;42.698;23.298;2023-06-14T04:30:43;94643.06;;;18.25;100.00
6343;BME280;3204;42.698;23.298;2023-06-14T04:33:08;94639.34;;;18.14;100.00
6343;BME280;3204;42.698;23.298;2023-06-14T04:35:35;94638.63;;;18.21;100.00
6343;BME280;3204;42.698;23.298;2023-06-14T04:38:01;94639.97;;;18.27;100.00
6343;BME280;3204;42.698;23.298;2023-06-14T04:40:29;94647.09;;;18.31;100.00
6343;BME280;3204;42.698;23.298;2023-06-14T04:42:55;94642.06;;;18.33;100.00
6343;BME280;3204;42.698;23.298;2023-06-14T04:45:21;94651.03;;;18.53;100.00
6343;BME280;3204;42.698;23.298;2023-06-14T04:47:47;94641.72;;;18.57;100.00
6343;BME280;3204;42.698;23.298;2023-06-14T04:50:12;94651.34;;;18.48;100.00
6343;BME280;3204;42.698;23.298;2023-06-14T04:52:38;94652.19;;;18.52;100.00
6343;BME280;3204;42.698;23.298;2023-06-14T04:55:04;94656.19;;;18.54;99.90
6343;BME280;3204;42.698;23.298;2023-06-14T04:57:31;94655.50;;;18.61;99.92
6343;BME280;3204;42.698;23.298;2023-06-14T04:59:56;94650.19;;;18.71;99.39
6343;BME280;3204;42.698;23.298;2023-06-14T05:02:23;94659.66;;;18.74;98.57
6343;BME280;3204;42.698;23.298;2023-06-14T05:04:49;94667.47;;;18.72;98.45
6343;BME280;3204;42.698;23.298;2023-06-14T05:07:14;94670.25;;;18.75;98.36
6343;BME280;3204;42.698;23.298;2023-06-14T05:09:40;94669.97;;;18.80;98.25
6343;BME280;3204;42.698;23.298;2023-06-14T05:12:06;94666.50;;;18.83;97.81
6343;BME280;3204;42.698;23.298;2023-06-14T05:14:35;94669.44;;;18.94;97.00
6343;BME280;3204;42.698;23.298;2023-06-14T05:17:01;94672.13;;;18.90;97.47
6343;BME280;3204;42.698;23.298;2023-06-14T05:19:27;94665.00;;;18.89;97.92
6343;BME280;3204;42.698;23.298;2023-06-14T05:21:53;94672.28;;;19.01;97.39
6343;BME280;3204;42.698;23.298;2023-06-14T05:24:18;94676.25;;;19.03;96.95
6343;BME280;3204;42.698;23.298;2023-06-14T05:26:44;94686.47;;;19.03;96.78
6343;BME280;3204;42.698;23.298;2023-06-14T05:29:10;94688.59;;;19.13;96.15
6343;BME280;3204;42.698;23.298;2023-06-14T05:31:35;94686.09;;;19.04;96.04
6343;BME280;3204;42.698;23.298;2023-06-14T05:34:01;94683.22;;;18.97;96.43
6343;BME280;3204;42.698;23.298;2023-06-14T05:36:26;94695.25;;;19.12;96.38
6343;BME280;3204;42.698;23.298;2023-06-14T05:38:53;94691.75;;;19.15;96.38
6343;BME280;3204;42.698;23.298;2023-06-14T05:41:27;94700.56;;;19.24;95.44
6343;BME280;3204;42.698;23.298;2023-06-14T05:43:56;94698.91;;;19.19;95.05
6343;BME280;3204;42.698;23.298;2023-06-14T05:46:22;94692.88;;;19.10;95.81
6343;BME280;3204;42.698;23.298;2023-06-14T05:48:51;94698.81;;;19.16;95.38
6343;BME280;3204;42.698;23.298;2023-06-14T05:51:17;94697.91;;;19.08;97.02
6343;BME280;3204;42.698;23.298;2023-06-14T05:53:48;94702.97;;;19.03;98.56
6343;BME280;3204;42.698;23.298;2023-06-14T05:56:14;94696.53;;;19.18;99.08
6343;BME280;3204;42.698;23.298;2023-06-14T05:58:40;94697.75;;;19.20;98.21
6343;BME280;3204;42.698;23.298;2023-06-14T06:01:05;94703.06;;;19.10;98.74
6343;BME280;3204;42.698;23.298;2023-06-14T06:03:31;94696.97;;;18.97;100.00
6343;BME280;3204;42.698;23.298;2023-06-14T06:05:57;94702.47;;;18.97;100.00
6343;BME280;3204;42.698;23.298;2023-06-14T06:08:23;94700.97;;;19.03;100.00
6343;BME280;3204;42.698;23.298;2023-06-14T06:10:49;94707.03;;;19.12;100.00
6343;BME280;3204;42.698;23.298;2023-06-14T06:13:14;94708.50;;;19.29;99.44
6343;BME280;3204;42.698;23.298;2023-06-14T06:15:40;94705.03;;;19.32;98.82
6343;BME280;3204;42.698;23.298;2023-06-14T06:18:06;94712.91;;;19.33;98.77
6343;BME280;3204;42.698;23.298;2023-06-14T06:20:32;94714.91;;;19.36;98.93
6343;BME280;3204;42.698;23.298;2023-06-14T06:22:58;94710.06;;;19.52;98.20
6343;BME280;3204;42.698;23.298;2023-06-14T06:25:25;94719.41;;;19.48;96.50
6343;BME280;3204;42.698;23.298;2023-06-14T06:27:52;94720.25;;;19.52;97.17
6343;BME280;3204;42.698;23.298;2023-06-14T06:30:18;94721.88;;;19.56;97.50
6343;BME280;3204;42.698;23.298;2023-06-14T06:32:44;94725.63;;;19.67;96.35
6343;BME280;3204;42.698;23.298;2023-06-14T06:35:09;94715.34;;;19.64;96.20
6343;BME280;3204;42.698;23.298;2023-06-14T06:37:36;94717.56;;;19.55;96.66
6343;BME280;3204;42.698;23.298;2023-06-14T06:40:02;94724.53;;;19.75;95.32
6343;BME280;3204;42.698;23.298;2023-06-14T06:42:29;94718.44;;;19.63;96.42
6343;BME280;3204;42.698;23.298;2023-06-14T06:44:54;94723.22;;;19.66;96.14
6343;BME280;3204;42.698;23.298;2023-06-14T06:47:20;94714.88;;;19.88;96.07
6343;BME280;3204;42.698;23.298;2023-06-14T06:49:45;94721.72;;;19.98;94.47
6343;BME280;3204;42.698;23.298;2023-06-14T06:52:11;94721.28;;;19.96;94.13
6343;BME280;3204;42.698;23.298;2023-06-14T06:54:36;94712.31;;;20.02;93.53
6343;BME280;3204;42.698;23.298;2023-06-14T06:57:02;94714.72;;;20.04;91.92
6343;BME280;3204;42.698;23.298;2023-06-14T06:59:27;94729.22;;;20.01;92.21
6343;BME280;3204;42.698;23.298;2023-06-14T07:01:53;94724.50;;;20.01;92.55
6343;BME280;3204;42.698;23.298;2023-06-14T07:04:19;94731.41;;;20.14;92.84
6343;BME280;3204;42.698;23.298;2023-06-14T07:06:46;94729.75;;;20.39;92.75
6343;BME280;3204;42.698;23.298;2023-06-14T07:09:12;94725.97;;;20.54;92.85
6343;BME280;3204;42.698;23.298;2023-06-14T07:11:40;94725.38;;;20.71;91.75
6343;BME280;3204;42.698;23.298;2023-06-14T07:14:06;94724.75;;;20.88;90.97
6343;BME280;3204;42.698;23.298;2023-06-14T07:16:32;94734.03;;;21.06;90.63
6343;BME280;3204;42.698;23.298;2023-06-14T07:18:58;94727.47;;;21.21;87.96
6343;BME280;3204;42.698;23.298;2023-06-14T07:21:23;94728.66;;;21.20;86.25
6343;BME280;3204;42.698;23.298;2023-06-14T07:23:51;94733.78;;;21.22;86.18
6343;BME280;3204;42.698;23.298;2023-06-14T07:26:16;94729.72;;;21.09;86.40
6343;BME280;3204;42.698;23.298;2023-06-14T07:28:42;94732.72;;;21.33;86.33
6343;BME280;3204;42.698;23.298;2023-06-14T07:31:10;94733.31;;;21.60;85.63
6343;BME280;3204;42.698;23.298;2023-06-14T07:33:36;94730.69;;;21.30;85.54
6343;BME280;3204;42.698;23.298;2023-06-14T07:36:02;94729.44;;;21.21;85.87
6343;BME280;3204;42.698;23.298;2023-06-14T07:38:28;94731.34;;;21.13;84.45
6343;BME280;3204;42.698;23.298;2023-06-14T07:40:53;94729.84;;;20.83;85.14
6343;BME280;3204;42.698;23.298;2023-06-14T07:43:19;94722.78;;;20.85;85.83
6343;BME280;3204;42.698;23.298;2023-06-14T07:45:44;94725.09;;;20.83;84.79
6343;BME280;3204;42.698;23.298;2023-06-14T07:48:10;94725.09;;;20.83;85.17
6343;BME280;3204;42.698;23.298;2023-06-14T07:50:36;94725.91;;;20.84;84.36
6343;BME280;3204;42.698;23.298;2023-06-14T07:53:01;94734.38;;;21.01;84.64
6343;BME280;3204;42.698;23.298;2023-06-14T07:55:27;94736.94;;;21.20;84.60
6343;BME280;3204;42.698;23.298;2023-06-14T07:57:53;94738.00;;;21.52;84.90
6343;BME280;3204;42.698;23.298;2023-06-14T08:00:19;94749.03;;;22.06;nan
6343;BME280;3204;42.698;23.298;2023-06-14T08:02:45;94751.81;;;22.10;80.63
6343;BME280;3204;42.698;23.298;2023-06-14T08:05:11;94746.41;;;22.31;80.40
6343;BME280;3204;42.698;23.298;2023-06-14T08:07:37;94748.00;;;22.35;80.34
6343;BME280;3204;42.698;23.298;2023-06-14T08:10:04;94757.38;;;22.13;78.83
6343;BME280;3204;42.698;23.298;2023-06-14T08:12:29;94759.78;;;22.25;77.97
6343;BME280;3204;42.698;23.298;2023-06-14T08:14:55;94770.16;;;22.42;78.36
6343;BME280;3204;42.698;23.298;2023-06-14T08:17:20;94773.63;;;22.29;77.87
6343;BME280;3204;42.698;23.298;2023-06-14T08:19:45;94764.41;;;22.07;77.74
6343;BME280;3204;42.698;23.298;2023-06-14T08:22:11;94764.53;;;22.25;77.89
6343;BME280;3204;42.698;23.298;2023-06-14T08:24:37;94772.63;;;22.61;76.88
6343;BME280;3204;42.698;23.298;2023-06-14T08:27:02;94767.97;;;22.79;75.65
6343;BME280;3204;42.698;23.298;2023-06-14T08:29:28;94776.28;;;22.79;74.79
6343;BME280;3204;42.698;23.298;2023-06-14T08:31:55;94769.94;;;22.82;74.08
6343;BME280;3204;42.698;23.298;2023-06-14T08:34:21;94774.31;;;22.94;73.63
6343;BME280;3204;42.698;23.298;2023-06-14T08:36:51;94779.47;;;22.95;73.56
6343;BME280;3204;42.698;23.298;2023-06-14T08:39:17;94771.25;;;23.20;73.58
6343;BME280;3204;42.698;23.298;2023-06-14T08:41:46;94768.09;;;23.28;74.15
6343;BME280;3204;42.698;23.298;2023-06-14T08:44:12;94764.97;;;23.44;74.05
6343;BME280;3204;42.698;23.298;2023-06-14T08:46:38;94764.19;;;23.50;73.87
6343;BME280;3204;42.698;23.298;2023-06-14T08:49:04;94755.88;;;23.57;72.59
6343;BME280;3204;42.698;23.298;2023-06-14T08:51:32;94752.28;;;23.85;72.05
6343;BME280;3204;42.698;23.298;2023-06-14T08:54:02;94757.44;;;24.07;71.28
6343;BME280;3204;42.698;23.298;2023-06-14T08:56:31;94751.44;;;24.30;71.22
6343;BME280;3204;42.698;23.298;2023-06-14T08:58:59;94756.16;;;24.50;70.33
6343;BME280;3204;42.698;23.298;2023-06-14T09:01:36;94762.91;;;24.39;69.76
6343;BME280;3204;42.698;23.298;2023-06-14T09:04:02;94759.34;;;24.35;68.23
6343;BME280;3204;42.698;23.298;2023-06-14T09:06:28;94748.25;;;24.38;69.00
6343;BME280;3204;42.698;23.298;2023-06-14T09:08:55;94757.28;;;24.63;69.10
6343;BME280;3204;42.698;23.298;2023-06-14T09:11:23;94756.88;;;24.72;68.51
6343;BME280;3204;42.698;23.298;2023-06-14T09:13:49;94755.63;;;24.80;68.62
6343;BME280;3204;42.698;23.298;2023-06-14T09:16:15;94749.75;;;24.71;68.52
6343;BME280;3204;42.698;23.298;2023-06-14T09:18:45;94747.31;;;24.80;68.73
6343;BME280;3204;42.698;23.298;2023-06-14T09:21:14;94741.25;;;25.02;68.61
6343;BME280;3204;42.698;23.298;2023-06-14T09:23:41;94749.22;;;25.62;68.63
6343;BME280;3204;42.698;23.298;2023-06-14T09:26:14;94747.03;;;25.32;68.93
6343;BME280;3204;42.698;23.298;2023-06-14T09:28:48;94743.16;;;25.16;68.97
6343;BME280;3204;42.698;23.298;2023-06-14T09:31:15;94741.34;;;24.85;68.11
6343;BME280;3204;42.698;23.298;2023-06-14T09:33:42;94741.63;;;25.04;67.88
6343;BME280;3204;42.698;23.298;2023-06-14T09:36:13;94743.63;;;25.00;67.22
6343;BME280;3204;42.698;23.298;2023-06-14T09:38:41;94741.34;;;24.85;68.46
6343;BME280;3204;42.698;23.298;2023-06-14T09:41:06;94729.22;;;24.44;69.33
6343;BME280;3204;42.698;23.298;2023-06-14T09:43:33;94734.75;;;24.47;68.50
6343;BME280;3204;42.698;23.298;2023-06-14T09:46:00;94732.38;;;24.46;68.29
6343;BME280;3204;42.698;23.298;2023-06-14T09:48:26;94733.19;;;24.39;68.69
6343;BME280;3204;42.698;23.298;2023-06-14T09:50:52;94732.44;;;24.28;68.92
6343;BME280;3204;42.698;23.298;2023-06-14T09:53:21;94727.25;;;24.30;69.88
6343;BME280;3204;42.698;23.298;2023-06-14T09:55:49;94731.94;;;24.61;68.57
6343;BME280;3204;42.698;23.298;2023-06-14T09:58:16;94728.00;;;24.55;68.74
6343;BME280;3204;42.698;23.298;2023-06-14T10:00:44;94717.38;;;24.36;69.28
6343;BME280;3204;42.698;23.298;2023-06-14T10:03:14;94708.72;;;24.06;69.02
6343;BME280;3204;42.698;23.298;2023-06-14T10:05:44;94718.63;;;23.86;69.76
6343;BME280;3204;42.698;23.298;2023-06-14T10:08:14;94707.59;;;23.58;71.03
6343;BME280;3204;42.698;23.298;2023-06-14T10:10:42;94700.81;;;24.01;73.07
6343;BME280;3204;42.698;23.298;2023-06-14T10:13:08;94700.00;;;24.18;71.74
6343;BME280;3204;42.698;23.298;2023-06-14T10:15:58;94704.75;;;24.14;70.02
6343;BME280;3204;42.698;23.298;2023-06-14T10:18:45;94705.47;;;24.36;69.81
6343;BME280;3204;42.698;23.298;2023-06-14T10:21:21;94699.72;;;24.88;68.06
6343;BME280;3204;42.698;23.298;2023-06-14T10:23:50;94696.09;;;24.95;67.73
6343;BME280;3204;42.698;23.298;2023-06-14T10:26:23;94708.59;;;24.52;66.63
6343;BME280;3204;42.698;23.298;2023-06-14T10:29:08;94702.25;;;24.48;68.52
6343;BME280;3204;42.698;23.298;2023-06-14T10:31:48;94704.56;;;24.63;68.39
6343;BME280;3204;42.698;23.298;2023-06-14T10:34:30;94696.69;;;24.62;65.75
6343;BME280;3204;42.698;23.298;2023-06-14T10:37:12;94696.16;;;24.84;65.38
6343;BME280;3204;42.698;23.298;2023-06-14T10:39:42;94692.69;;;25.31;67.17
6343;BME280;3204;42.698;23.298;2023-06-14T10:42:09;94695.53;;;25.72;65.87
6343;BME280;3204;42.698;23.298;2023-06-14T10:47:20;94684.09;;;25.63;63.87
6343;BME280;3204;42.698;23.298;2023-06-14T10:49:50;94689.16;;;25.24;63.55
6343;BME280;3204;42.698;23.298;2023-06-14T10:52:20;94688.78;;;25.18;63.85
6343;BME280;3204;42.698;23.298;2023-06-14T10:54:59;94677.78;;;25.59;63.33
6343;BME280;3204;42.698;23.298;2023-06-14T10:57:25;94671.69;;;26.15;62.12
6343;BME280;3204;42.698;23.298;2023-06-14T10:59:50;94676.28;;;26.28;61.77
6343;BME280;3204;42.698;23.298;2023-06-14T11:04:49;94667.91;;;25.98;62.56
6343;BME280;3204;42.698;23.298;2023-06-14T11:12:31;94667.34;;;25.73;63.97
6343;BME280;3204;42.698;23.298;2023-06-14T11:14:58;94664.25;;;26.05;62.53
6343;BME280;3204;42.698;23.298;2023-06-14T11:17:24;94654.84;;;25.92;63.94
6343;BME280;3204;42.698;23.298;2023-06-14T11:19:50;94663.75;;;26.13;62.62
6343;BME280;3204;42.698;23.298;2023-06-14T11:22:15;94661.53;;;26.01;61.28
6343;BME280;3204;42.698;23.298;2023-06-14T11:24:42;94655.19;;;25.57;61.92
6343;BME280;3204;42.698;23.298;2023-06-14T11:27:08;94657.22;;;25.93;62.16
6343;BME280;3204;42.698;23.298;2023-06-14T11:29:33;94662.78;;;26.30;60.13
6343;BME280;3204;42.698;23.298;2023-06-14T11:31:59;94654.00;;;25.98;61.98
6343;BME280;3204;42.698;23.298;2023-06-14T11:34:25;94650.16;;;26.22;62.75
6343;BME280;3204;42.698;23.298;2023-06-14T11:36:50;94644.91;;;25.91;61.59
6343;BME280;3204;42.698;23.298;2023-06-14T11:39:16;94645.31;;;25.93;62.10
6343;BME280;3204;42.698;23.298;2023-06-14T11:41:44;94646.69;;;25.74;63.38
6343;BME280;3204;42.698;23.298;2023-06-14T11:44:10;94630.66;;;25.85;62.92
6343;BME280;3204;42.698;23.298;2023-06-14T11:46:37;94639.59;;;25.66;62.24
6343;BME280;3204;42.698;23.298;2023-06-14T11:49:03;94631.16;;;25.36;64.63
6343;BME280;3204;42.698;23.298;2023-06-14T11:51:33;94634.28;;;25.42;61.58
6343;BME280;3204;42.698;23.298;2023-06-14T11:54:00;94620.72;;;25.47;61.53
6343;BME280;3204;42.698;23.298;2023-06-14T11:56:28;94625.94;;;25.45;61.15
6343;BME280;3204;42.698;23.298;2023-06-14T11:58:53;94619.06;;;25.57;62.26
6343;BME280;3204;42.698;23.298;2023-06-14T12:01:21;94612.28;;;25.98;61.86
6343;BME280;3204;42.698;23.298;2023-06-14T12:03:52;94607.97;;;26.57;61.08
6343;BME280;3204;42.698;23.298;2023-06-14T12:06:26;94605.94;;;26.31;60.99
6343;BME280;3204;42.698;23.298;2023-06-14T12:08:58;94601.63;;;25.93;60.77
6343;BME280;3204;42.698;23.298;2023-06-14T12:11:24;94598.88;;;25.90;61.49
6343;BME280;3204;42.698;23.298;2023-06-14T12:13:49;94599.44;;;26.11;61.46
6343;BME280;3204;42.698;23.298;2023-06-14T12:16:15;94591.91;;;26.38;60.10
6343;BME280;3204;42.698;23.298;2023-06-14T12:18:41;94586.63;;;26.47;60.05
6343;BME280;3204;42.698;23.298;2023-06-14T12:21:09;94583.09;;;26.43;60.42
6343;BME280;3204;42.698;23.298;2023-06-14T12:23:49;94583.31;;;26.59;60.65
6343;BME280;3204;42.698;23.298;2023-06-14T12:28:41;94593.88;;;26.71;58.45
6343;BME280;3204;42.698;23.298;2023-06-14T12:31:12;94587.13;;;26.95;58.27
6343;BME280;3204;42.698;23.298;2023-06-14T12:33:38;94580.81;;;27.41;57.83
6343;BME280;3204;42.698;23.298;2023-06-14T12:36:04;94579.91;;;27.71;57.05
6343;BME280;3204;42.698;23.298;2023-06-14T12:38:32;94576.59;;;27.56;56.28
6343;BME280;3204;42.698;23.298;2023-06-14T12:40:57;94572.16;;;27.12;56.69
6343;BME280;3204;42.698;23.298;2023-06-14T12:43:22;94565.28;;;26.67;57.90
6343;BME280;3204;42.698;23.298;2023-06-14T12:45:48;94552.13;;;26.41;59.65
6343;BME280;3204;42.698;23.298;2023-06-14T12:48:13;94556.22;;;26.33;59.43
6343;BME280;3204;42.698;23.298;2023-06-14T12:50:39;94551.03;;;26.35;59.01
6343;BME280;3204;42.698;23.298;2023-06-14T12:53:04;94558.91;;;26.40;58.92
6343;BME280;3204;42.698;23.298;2023-06-14T12:55:30;94550.47;;;26.17;60.16
6343;BME280;3204;42.698;23.298;2023-06-14T12:57:55;94549.59;;;25.90;58.92
6343;BME280;3204;42.698;23.298;2023-06-14T13:00:21;94546.56;;;25.78;59.58
6343;BME280;3204;42.698;23.298;2023-06-14T13:02:47;94553.63;;;25.86;59.19
6343;BME280;3204;42.698;23.298;2023-06-14T13:05:12;94555.03;;;25.67;59.84
6343;BME280;3204;42.698;23.298;2023-06-14T13:07:38;94562.19;;;25.65;60.03
6343;BME280;3204;42.698;23.298;2023-06-14T13:10:03;94558.72;;;25.94;60.32
6343;BME280;3204;42.698;23.298;2023-06-14T13:12:29;94550.31;;;26.01;60.35
6343;BME280;3204;42.698;23.298;2023-06-14T13:14:55;94559.94;;;25.90;59.95
6343;BME280;3204;42.698;23.298;2023-06-14T13:17:20;94553.25;;;25.84;60.61
6343;BME280;3204;42.698;23.298;2023-06-14T13:19:46;94550.22;;;25.71;60.66
6343;BME280;3204;42.698;23.298;2023-06-14T13:22:11;94555.72;;;25.75;61.38
6343;BME280;3204;42.698;23.298;2023-06-14T13:24:37;94560.81;;;25.83;62.06
6343;BME280;3204;42.698;23.298;2023-06-14T13:27:02;94577.50;;;25.83;62.90